This site, now in its 15th season, is a labour of love and fun from one of Ottawa's most avid time trialists and number crunchers. It adheres to and is permitted by the laws of Canada, promotes the objectives of every bicycle club whose results are shown, and is donated free of charge by myself for your enjoyment and usage. If you would like results from series you ride in to be shown here, give me (celia@drmath.ca) a shout!


Index Page
ATT OTT WTT AATT CFCTT VVVTT
Help resultformat:
Case-sensitive

OBC Open TT Series - 2009-May-14 - 15km (Rockliffe Pkwy) (EvtFactor = 0.8381)

Weather (18:00): Mostly Cloudy. Temp.: 19.9C, Humidity: 36%, DewPoint: 4.4C, Wind: W 39km/h gust 50km/h, Pressure: 99.67kPa, Visibility: 24.1km.
Weather (19:00): Mainly Clear. Temp.: 19.5C, Humidity: 39%, DewPoint: 5.3C, Wind: WSW 30km/h gust 45km/h, Pressure: 99.78kPa, Visibility: 24.1km.
Weather (20:00): Mainly Clear. Temp.: 18.1C, Humidity: 43%, DewPoint: 5.2C, Wind: W 22km/h, Pressure: 99.94kPa, Visibility: 24.1km.

Send photos with description (when/where/what) of yourself on or off of bike to celia@drmath.ca

These results were first posted on the OBC site circa 10:30 on 2009-May-22 and are available here for your added pleasure and analysis.

 
 

BESTS?
 
1 MacDonald, Warren  OBC/EMD 19:03 47.244 1/59 VAM 1/12 1.0589
2 Fillion, Aaron  OBC 19:08 47.038 2/59 VAM 2/12 1.1855
3 Devisscher, Thomas --- 20:09 44.665 3/59 SEM 1/10 0.9368
4 Rendall, Glen  --- 20:20 44.262 4/59 VBM 1/9  
5 van den Ham, Douglas  OBC/EMD 20:31 43.867 5/59 VAM 3/12 1.0445
6 Dal-Cin, Matteo  --- 20:33 43.796 6/59 JUM 1/4  
7 Cataford, Alex OBC 20:42 43.478 7/59 CAM 1/3 1.0121
8 Sudac, Rick  OBC/RWR 21:00 42.857 8/59 VDM 1/1  
9 Desbiens, Martin OBC/RDO 21:12 42.453 9/59 VBM 2/9 0.9812
10 Tsilemos, Jim --- 21:35 41.699 10/59 VBM 3/9  
11 Campbell, Colin  OBC 21:43 41.443 11/59 VBM 4/9 1.0852
12 Reid, Chris  --- 21:47 41.316 12/59 SEM 2/10  
13 Hanrahan, Mason --- 21:50 41.221 13/59 SEM 3/10  
14 Parniak, Robert  --- 21:51 41.190 14/59 VAM 4/12  
15 DeLuco, Matt OBC 22:00 40.909 15/59 SEM 4/10  
16 Morewood, Colin OBC 22:03 40.816 16/59 JUM 2/4 1.2365
17 Mullington, Chris WQW 22:15 40.449 17/59 VCM 1/9 0.9191
18 Farish, Neil  OBC/RWR 22:17 40.389 18/59 VCM 2/9 0.9645
19 Budgell, Glen  OBC 22:45 39.560 19/59 VCM 3/9 0.9043
20 Tessier, Benoit RDO 23:02 39.074 20/59 VAM 5/12  
21 Orange, Kiernan --- 23:04 39.017 21/59 JUM 3/4  
22 Orange, Robert RWR 23:08 38.905 22/59 VBM 5/9 0.9039
23 Farrugia, Bruno RDO 23:10 38.849 23/59 VAM 6/12  
24 Konov, Sergei OBC 23:13 38.765 24/59 VAM 7/12 1.0195
Reiher, Martin OBC 23:13 38.765 24/59 VBM 6/9  
26 Burdett, Avery  OBC 23:31 38.271 26/59 VEM 1/1 0.9747
27 Reissner, Leslie OBC 23:36 38.136 27/59 VCM 4/9 0.9603
28 Coney, Sarah OBC 23:40 38.028 28/59 SEF 1/2  
29 Labelle, Marc-Antoine OBC 23:42 37.975 29/59 CAM 2/3 0.9895
30 Grace, Darrin  --- 23:45 37.895 30/59 VBM 7/9  
31 Trafford, Brian OBC 23:52 37.709 31/59 JUM 4/4 0.9344
32 Brügger, Marcel --- 24:02 37.448 32/59 VCM 5/9  
33 Langevin, Roger  OBC 24:03 37.422 33/59 VAM 8/12 0.9469
34 Campbell, Greg OBC 24:10 37.241 34/59 VAM 9/12  
35 Burge, Larry  OBC 24:13 37.164 35/59 VBM 8/9 1.0397
Hall, Margot OBC 24:13 37.164 35/59 VAF 1/1 0.9235
37 Vipond, Nicholas --- 24:29 36.760 37/59 SEM 5/10  
38 Kirton, Ian OBC 24:31 36.710 38/59 VAM 10/12 0.9838
39 Guenette, Jean-Yves OBC 24:35 36.610 39/59 VCM 6/9 1.2526
40 Medaglia, Tyler OBC 24:48 36.290 40/59 SEM 6/10 0.9504
41 Henry, Mike --- 24:59 36.024 41/59 VAM 11/12 0.9145
42 Wilkins, Carl  OBC 25:01 35.976 42/59 SEM 7/10  
43 Dorego, Jean-Louis OBC 25:12 35.714 43/59 VCM 7/9 0.8948
44 Marleau, Dianne  OBC/RWR 25:49 34.861 44/59 VBF 1/3 0.8882
45 Austen, Ian  OBC 26:16 34.264 45/59 VCM 8/9 0.9330
46 Janusauskas, Vytas  OBC 26:29 33.984 46/59 VCM 9/9 0.9103
McKinnon, Carrie OBC 26:29 33.984 46/59 VBF 2/3 0.9408
48 Medaglia, Jeremy OBC 26:46 33.624 48/59 SEM 8/10  
49 McInnis, Celia  OBC/ABC 27:03 33.272 49/59 VCF 1/1 0.8846
50 Hitchcock, Robert OBC 27:27 32.787 50/59 VBM 9/9  
51 Pelletier, Luc OBC 27:38 32.569 51/59 VAM 12/12  
52 Leboeuf, Maxime --- 27:44 32.452 52/59 CAM 3/3  
53 Nesdoly, Nina  OBC 28:21 31.746 53/59 CAF 1/2 0.9912
54 McLaughlin, Bryan OBC 28:48 31.250 54/59 SEM 9/10  
55 Bean, Camille OBC 29:10 30.857 55/59 CAF 2/2 0.8863
56 Dalton, Jennifer OBC 29:30 30.508 56/59 SEF 2/2  
57 Pritchard, Dawn OBC 29:41 30.320 57/59 VBF 3/3  
58 McLaughlin, Lindsey OBC 30:06 29.900 58/59 SEM 10/10  
59 Wright, Geoffrey  OBC 33:04 27.218 59/59 VFM 1/1 0.9393
 
Average Speed of all of the above 59 finishes (885km in 23:48:17):37.177
>>>Average of the Average Speeds for these 59 finishes37.698<<<
 

The number of data records shown above is 59
The server processing of your query took: 0 wallclock secs ( 0.08 usr + 0.01 sys = 0.09 CPU)

Thanks to our Helpers: Gunter Hauschildt, Louise McLaren, Shannon Topham, Linda Tremblay, Douglas Van Den ham.

     


Apr 10 (Good Friday)
May 5 (10km) May 7 May 12 (10km)
  May 14  
May 19 May 19 (10km) May 21 May 26 May 26 (10km) May 28 May 31 (40km)
Jun 2 Jun 2 Jun 4 Jun 9 Jun 9 Jun 11 Jun 16 Jun 16 Jun 18 Jun 23 Jun 23 Jun 25 Jun 30 Jun 30
Jul 2 Jul 5 (40km) Jul 7 Jul 7 (10km) Jul 9 (10km) Jul 12 (40km) Jul 14 Jul 14 (10km) Jul 16 (10km) Jul 21 Jul 21 (10km) Jul 23 Jul 23 (10km) Jul 28 Jul 28 (10km) Jul 30 (10km)
Aug 4 (cancelled - thunder storm) Aug 4 (10km) (cancelled - thunder storm) Aug 6 (10km) Aug 9 (40km) Aug 11 Aug 11 (10km) Aug 13 (10km) Aug 18 Aug 18 (10km) Aug 20 (10km) (cancelled - construction) Aug 25 Aug 25 (Invitational) Aug 27
Sep 1 Sep 3 Sep 8 Sep 10 Sep 13 (40km) Sep 15 Sep 22 Sep 29

OTT Rankings
Best       Best by category
WTT Rankings for OBC Members
4 Best Speeds     4 Best Speeds by category
OBC Member Best Three 15km Rankings
Overall     by category     age-Hcap Female   age-Hcap Male
OBC BAR Ranking
Overall     by category     Rider "Consistency-Graph"
ABC BAR Ranking
Overall     by category     Rider "Consistency-Graph"
Other years
TT Calculator All TT People All TT events
ABC Home VVV Home
CKAP GOLD MEDAL
Other Links

Note: OTT data from 2003 through 2006-Apr-14 and 2007-Apr-06-? and WTT from 2008-? is taken from the official OBC site.

Please send your comments and suggestions to: Celia McInnis
Copyright © 1998-2011 Celia McInnis. All rights reserved. Links are welcomed.